createdAt,value
2016-06-15T00:00:58.018Z,0
2016-06-15T00:01:58.022Z,0
2016-06-15T00:02:57.963Z,0
2016-06-15T00:03:57.966Z,0
2016-06-15T00:04:57.656Z,0
2016-06-15T00:05:57.987Z,0
2016-06-15T00:06:57.928Z,0
2016-06-15T00:07:57.884Z,0
2016-06-15T00:08:57.871Z,0
2016-06-15T00:09:57.734Z,0
2016-06-15T00:10:57.863Z,0
2016-06-15T00:11:57.865Z,0
2016-06-15T00:12:57.837Z,0
2016-06-15T00:13:57.855Z,0
2016-06-15T00:14:57.812Z,0
2016-06-15T00:15:57.815Z,0
2016-06-15T00:16:57.787Z,0
2016-06-15T00:17:57.774Z,0
2016-06-15T00:18:57.762Z,0
2016-06-15T00:19:58.015Z,0
2016-06-15T00:20:57.721Z,0
2016-06-15T00:21:57.740Z,0
2016-06-15T00:22:57.711Z,0
2016-06-15T00:23:57.715Z,0
2016-06-15T00:24:57.514Z,0
2016-06-15T00:25:57.674Z,0
2016-06-15T00:26:57.676Z,0
2016-06-15T00:27:57.649Z,0
2016-06-15T00:28:57.635Z,0
2016-06-15T00:29:57.639Z,0
2016-06-15T00:30:57.595Z,0
2016-06-15T00:31:57.599Z,0
2016-06-15T00:32:57.570Z,0
2016-06-15T00:33:57.558Z,0
2016-06-15T00:34:57.420Z,0
2016-06-15T00:35:57.611Z,0
2016-06-15T00:36:57.521Z,0
2016-06-15T00:37:57.523Z,0
2016-06-15T00:38:57.463Z,0
2016-06-15T00:39:57.483Z,0
2016-06-15T00:40:57.470Z,0
2016-06-15T00:41:57.441Z,0
2016-06-15T00:42:57.445Z,0
2016-06-15T00:43:57.417Z,0
2016-06-15T00:44:57.420Z,0
2016-06-15T00:45:57.392Z,0
2016-06-15T00:46:57.379Z,0
2016-06-15T00:47:57.366Z,0
2016-06-15T00:48:57.354Z,0
2016-06-15T00:49:57.544Z,0
2016-06-15T00:50:57.328Z,0
2016-06-15T00:51:57.317Z,0
2016-06-15T00:52:57.288Z,0
2016-06-15T00:53:57.276Z,0
2016-06-15T00:54:57.279Z,0
2016-06-15T00:55:57.110Z,0
2016-06-15T00:56:57.238Z,0
2016-06-15T00:57:57.241Z,0
2016-06-15T00:58:57.259Z,0
2016-06-15T00:59:57.252Z,0
2016-06-15T01:00:57.307Z,0
2016-06-15T01:01:57.331Z,0
2016-06-15T01:02:57.338Z,0
2016-06-15T01:03:57.359Z,0
2016-06-15T01:04:58.141Z,0
2016-06-15T01:05:57.344Z,0
2016-06-15T01:06:57.329Z,0
2016-06-15T01:07:57.345Z,0
2016-06-15T01:08:57.323Z,0
2016-06-15T01:09:57.332Z,0
2016-06-15T01:10:57.323Z,0
2016-06-15T01:11:57.317Z,0
2016-06-15T01:12:57.292Z,0
2016-06-15T01:13:57.283Z,0
2016-06-15T01:14:57.302Z,0
2016-06-15T01:15:57.245Z,0
2016-06-15T01:16:57.234Z,0
2016-06-15T01:17:57.238Z,0
2016-06-15T01:18:57.228Z,0
2016-06-15T01:19:57.137Z,0
2016-06-15T01:20:56.875Z,0
2016-06-15T01:21:57.176Z,0
2016-06-15T01:22:57.227Z,0
2016-06-15T01:23:57.152Z,0
2016-06-15T01:24:57.202Z,0
2016-06-15T01:25:57.127Z,0
2016-06-15T01:26:57.130Z,0
2016-06-15T01:27:57.102Z,0
2016-06-15T01:28:57.089Z,0
2016-06-15T01:29:57.077Z,0
2016-06-15T01:30:57.142Z,0
2016-06-15T01:31:57.052Z,0
2016-06-15T01:32:57.070Z,0
2016-06-15T01:33:57.027Z,0
2016-06-15T01:34:57.497Z,0
2016-06-15T01:35:56.845Z,0
2016-06-15T01:36:57.050Z,0
2016-06-15T01:37:56.961Z,0
2016-06-15T01:38:56.995Z,0
2016-06-15T01:39:56.951Z,0
2016-06-15T01:40:56.923Z,0
2016-06-15T01:41:56.910Z,0
2016-06-15T01:42:56.757Z,0
2016-06-15T01:43:56.713Z,0
2016-06-15T01:44:56.920Z,0
2016-06-15T01:45:56.844Z,0
2016-06-15T01:46:56.691Z,0
2016-06-15T01:47:56.834Z,0
2016-06-15T01:48:56.870Z,0
2016-06-15T01:49:56.810Z,0
2016-06-15T01:50:57.094Z,0
2016-06-15T01:51:56.785Z,0
2016-06-15T01:52:56.835Z,0
2016-06-15T01:53:56.760Z,0
2016-06-15T01:54:56.716Z,0
2016-06-15T01:55:56.734Z,0
2016-06-15T01:56:56.722Z,0
2016-06-15T01:57:56.693Z,0
2016-06-15T01:58:56.665Z,0
2016-06-15T01:59:56.669Z,0
2016-06-15T02:00:56.657Z,0
2016-06-15T02:01:56.660Z,0
2016-06-15T02:02:56.647Z,0
2016-06-15T02:03:56.619Z,0
2016-06-15T02:04:56.622Z,0
2016-06-15T02:05:56.437Z,0
2016-06-15T02:06:56.565Z,0
2016-06-15T02:07:56.553Z,0
2016-06-15T02:08:56.384Z,0
2016-06-15T02:09:56.527Z,0
2016-06-15T02:10:56.530Z,0
2016-06-15T02:11:56.503Z,0
2016-06-15T02:12:56.506Z,0
2016-06-15T02:13:56.478Z,0
2016-06-15T02:14:56.450Z,0
2016-06-15T02:15:56.437Z,0
2016-06-15T02:16:56.440Z,0
2016-06-15T02:17:56.427Z,0
2016-06-15T02:18:56.399Z,0
2016-06-15T02:19:56.230Z,0
2016-06-15T02:20:56.468Z,0
2016-06-15T02:21:56.408Z,0
2016-06-15T02:22:56.350Z,0
2016-06-15T02:23:56.336Z,0
2016-06-15T02:24:56.324Z,0
2016-06-15T02:25:56.311Z,0
2016-06-15T02:26:56.314Z,0
2016-06-15T02:27:56.285Z,0
2016-06-15T02:28:56.243Z,0
2016-06-15T02:29:56.245Z,0
2016-06-15T02:30:56.249Z,0
2016-06-15T02:31:56.079Z,0
2016-06-15T02:32:56.208Z,0
2016-06-15T02:33:56.226Z,0
2016-06-15T02:34:56.182Z,0
2016-06-15T02:35:56.170Z,4
2016-06-15T02:36:56.157Z,4
2016-06-15T02:37:56.160Z,0
2016-06-15T02:38:56.116Z,0
2016-06-15T02:39:56.182Z,0
2016-06-15T02:40:56.107Z,4
2016-06-15T02:41:56.079Z,4
2016-06-15T02:42:56.050Z,4
2016-06-15T02:43:56.054Z,4
2016-06-15T02:44:56.042Z,4
2016-06-15T02:45:56.076Z,4
2016-06-15T02:46:56.032Z,4
2016-06-15T02:47:56.035Z,8
2016-06-15T02:48:56.007Z,4
2016-06-15T02:49:56.025Z,8
2016-06-15T02:50:56.842Z,8
2016-06-15T02:51:56.031Z,8
2016-06-15T02:52:55.957Z,8
2016-06-15T02:53:55.928Z,12
2016-06-15T02:54:55.901Z,12
2016-06-15T02:55:55.888Z,12
2016-06-15T02:56:55.875Z,16
2016-06-15T02:57:55.877Z,16
2016-06-15T02:58:55.881Z,20
2016-06-15T02:59:55.868Z,24
2016-06-15T03:00:55.825Z,24
2016-06-15T03:01:55.844Z,28
2016-06-15T03:02:55.785Z,28
2016-06-15T03:03:55.787Z,32
2016-06-15T03:04:55.774Z,36
2016-06-15T03:05:56.402Z,36
2016-06-15T03:06:55.750Z,40
2016-06-15T03:07:55.753Z,44
2016-06-15T03:08:55.709Z,48
2016-06-15T03:09:55.744Z,52
2016-06-15T03:10:55.667Z,52
2016-06-15T03:11:55.562Z,56
2016-06-15T03:12:55.643Z,60
2016-06-15T03:13:55.646Z,64
2016-06-15T03:14:55.618Z,72
2016-06-15T03:15:55.605Z,76
2016-06-15T03:16:55.624Z,80
2016-06-15T03:17:55.269Z,88
2016-06-15T03:18:55.567Z,92
2016-06-15T03:19:55.555Z,96
2016-06-15T03:20:56.089Z,100
2016-06-15T03:21:55.545Z,104
2016-06-15T03:22:55.517Z,112
2016-06-15T03:23:55.490Z,112
2016-06-15T03:24:55.320Z,120
2016-06-15T03:25:55.449Z,128
2016-06-15T03:26:55.452Z,136
2016-06-15T03:27:55.439Z,140
2016-06-15T03:28:55.411Z,148
2016-06-15T03:29:55.414Z,160
2016-06-15T03:30:55.401Z,168
2016-06-15T03:31:55.389Z,176
2016-06-15T03:32:55.360Z,192
2016-06-15T03:33:55.426Z,200
2016-06-15T03:34:55.321Z,216
2016-06-15T03:35:55.541Z,228
2016-06-15T03:36:55.342Z,240
2016-06-15T03:37:55.283Z,252
2016-06-15T03:38:55.286Z,268
2016-06-15T03:39:55.320Z,284
2016-06-15T03:40:55.245Z,300
2016-06-15T03:41:55.232Z,320
2016-06-15T03:42:55.220Z,332
2016-06-15T03:43:55.207Z,344
2016-06-15T03:44:55.194Z,356
2016-06-15T03:45:55.167Z,364
2016-06-15T03:46:55.169Z,364
2016-06-15T03:47:55.173Z,360
2016-06-15T03:48:55.144Z,360
2016-06-15T03:49:55.132Z,360
2016-06-15T03:50:55.447Z,360
2016-06-15T03:51:55.107Z,368
2016-06-15T03:52:55.078Z,376
2016-06-15T03:53:55.050Z,380
2016-06-15T03:54:55.052Z,384
2016-06-15T03:55:55.041Z,392
2016-06-15T03:56:55.028Z,400
2016-06-15T03:57:55.016Z,408
2016-06-15T03:58:54.988Z,416
2016-06-15T03:59:54.975Z,420
2016-06-15T04:00:54.946Z,428
2016-06-15T04:01:54.935Z,440
2016-06-15T04:02:54.921Z,456
2016-06-15T04:03:54.910Z,468
2016-06-15T04:04:54.896Z,492
2016-06-15T04:05:55.587Z,520
2016-06-15T04:06:54.887Z,544
2016-06-15T04:07:54.859Z,560
2016-06-15T04:08:54.831Z,564
2016-06-15T04:09:54.834Z,564
2016-06-15T04:10:54.681Z,568
2016-06-15T04:11:54.793Z,572
2016-06-15T04:12:54.796Z,568
2016-06-15T04:13:54.768Z,572
2016-06-15T04:14:54.755Z,576
2016-06-15T04:15:54.728Z,588
2016-06-15T04:16:54.714Z,600
2016-06-15T04:17:54.703Z,608
2016-06-15T04:18:54.706Z,624
2016-06-15T04:19:54.677Z,644
2016-06-15T04:20:55.305Z,660
2016-06-15T04:21:54.668Z,664
2016-06-15T04:22:54.639Z,660
2016-06-15T04:23:54.611Z,660
2016-06-15T04:24:54.615Z,664
2016-06-15T04:25:54.586Z,664
2016-06-15T04:26:54.574Z,652
2016-06-15T04:27:54.576Z,624
2016-06-15T04:28:54.549Z,600
2016-06-15T04:29:54.536Z,596
2016-06-15T04:30:54.524Z,596
2016-06-15T04:31:54.496Z,616
2016-06-15T04:32:54.483Z,636
2016-06-15T04:33:54.486Z,656
2016-06-15T04:34:54.161Z,688
2016-06-15T04:35:54.461Z,728
2016-06-15T04:36:54.448Z,772
2016-06-15T04:37:54.264Z,816
2016-06-15T04:38:54.267Z,872
2016-06-15T04:39:54.379Z,944
2016-06-15T04:40:54.367Z,1024
2016-06-15T04:41:54.338Z,1124
2016-06-15T04:42:54.419Z,1248
2016-06-15T04:43:54.344Z,1372
2016-06-15T04:44:54.331Z,1456
2016-06-15T04:45:54.303Z,1508
2016-06-15T04:46:54.307Z,1584
2016-06-15T04:47:54.262Z,1644
2016-06-15T04:48:54.282Z,1668
2016-06-15T04:49:54.238Z,1692
2016-06-15T04:50:54.257Z,1692
2016-06-15T04:51:54.072Z,1672
2016-06-15T04:52:54.060Z,1676
2016-06-15T04:53:54.156Z,1604
2016-06-15T04:54:54.159Z,1560
2016-06-15T04:55:54.147Z,1552
2016-06-15T04:56:54.165Z,1548
2016-06-15T04:57:54.107Z,1580
2016-06-15T04:58:53.953Z,1612
2016-06-15T04:59:53.941Z,1592
2016-06-15T05:00:54.130Z,1600
2016-06-15T05:01:54.056Z,1608
2016-06-15T05:02:54.075Z,1636
2016-06-15T05:03:54.015Z,1672
2016-06-15T05:04:54.034Z,1724
2016-06-15T05:05:54.053Z,1772
2016-06-15T05:06:54.634Z,1784
2016-06-15T05:07:53.965Z,1784
2016-06-15T05:08:53.828Z,1808
2016-06-15T05:09:53.940Z,1860
2016-06-15T05:10:53.928Z,1928
2016-06-15T05:11:53.930Z,2028
2016-06-15T05:12:53.950Z,2136
2016-06-15T05:13:53.921Z,2280
2016-06-15T05:14:53.878Z,2456
2016-06-15T05:15:53.849Z,2648
2016-06-15T05:16:53.852Z,2756
2016-06-15T05:17:53.824Z,2920
2016-06-15T05:18:53.811Z,3060
2016-06-15T05:19:53.800Z,3160
2016-06-15T05:20:54.083Z,3212
2016-06-15T05:21:53.790Z,3304
2016-06-15T05:22:53.761Z,3352
2016-06-15T05:23:53.749Z,3300
2016-06-15T05:24:53.736Z,3224
2016-06-15T05:25:53.708Z,3104
2016-06-15T05:26:53.789Z,3060
2016-06-15T05:27:53.683Z,2988
2016-06-15T05:28:53.671Z,2960
2016-06-15T05:29:53.658Z,2952
2016-06-15T05:30:53.661Z,2940
2016-06-15T05:31:53.617Z,2952
2016-06-15T05:32:53.683Z,3020
2016-06-15T05:33:53.607Z,3044
2016-06-15T05:34:53.657Z,3092
2016-06-15T05:35:53.646Z,3200
2016-06-15T05:36:53.882Z,3284
2016-06-15T05:37:53.526Z,3264
2016-06-15T05:38:53.560Z,3132
2016-06-15T05:39:53.500Z,3056
2016-06-15T05:40:53.519Z,3060
2016-06-15T05:41:53.476Z,3120
2016-06-15T05:42:53.464Z,3176
2016-06-15T05:43:53.434Z,3264
2016-06-15T05:44:53.470Z,3384
2016-06-15T05:45:53.426Z,3428
2016-06-15T05:46:53.633Z,3452
2016-06-15T05:47:53.400Z,3544
2016-06-15T05:48:53.389Z,3624
2016-06-15T05:49:53.203Z,3692
2016-06-15T05:50:53.253Z,3692
2016-06-15T05:51:53.209Z,3684
2016-06-15T05:52:53.338Z,3644
2016-06-15T05:53:53.309Z,3628
2016-06-15T05:54:53.313Z,3660
2016-06-15T05:55:53.299Z,3756
2016-06-15T05:56:53.288Z,3812
2016-06-15T05:57:53.260Z,3748
2016-06-15T05:58:53.247Z,3512
2016-06-15T05:59:53.250Z,3116
2016-06-15T06:00:53.222Z,2780
2016-06-15T06:01:53.209Z,2604
2016-06-15T06:02:53.213Z,2508
2016-06-15T06:03:53.184Z,2456
2016-06-15T06:04:53.172Z,2432
2016-06-15T06:05:53.440Z,2472
2016-06-15T06:06:53.818Z,2512
2016-06-15T06:07:53.166Z,2520
2016-06-15T06:08:53.122Z,2544
2016-06-15T06:09:53.108Z,2624
2016-06-15T06:10:53.721Z,2708
2016-06-15T06:11:53.068Z,2764
2016-06-15T06:12:53.071Z,2676
2016-06-15T06:13:52.919Z,2588
2016-06-15T06:14:53.046Z,2476
2016-06-15T06:15:53.550Z,2384
2016-06-15T06:16:52.864Z,2300
2016-06-15T06:17:52.853Z,2248
2016-06-15T06:18:52.980Z,2272
2016-06-15T06:19:52.999Z,2372
2016-06-15T06:20:52.971Z,2488
2016-06-15T06:21:53.990Z,2604
2016-06-15T06:22:52.962Z,2668
2016-06-15T06:23:52.933Z,2732
2016-06-15T06:24:52.921Z,2808
2016-06-15T06:25:53.330Z,2916
2016-06-15T06:26:52.880Z,3060
2016-06-15T06:27:52.883Z,3252
2016-06-15T06:28:52.855Z,3548
2016-06-15T06:29:52.843Z,3868
2016-06-15T06:30:54.001Z,4176
2016-06-15T06:31:52.818Z,4500
2016-06-15T06:32:52.804Z,4808
2016-06-15T06:33:52.824Z,4980
2016-06-15T06:34:52.780Z,4980
2016-06-15T06:35:54.330Z,4912
2016-06-15T06:36:53.005Z,4932
2016-06-15T06:37:52.757Z,5124
2016-06-15T06:38:52.729Z,5264
2016-06-15T06:39:52.701Z,5436
2016-06-15T06:40:52.704Z,5668
2016-06-15T06:41:52.723Z,5816
2016-06-15T06:42:54.132Z,5876
2016-06-15T06:43:52.651Z,6168
2016-06-15T06:44:53.763Z,6776
2016-06-15T06:45:53.267Z,6840
2016-06-15T06:46:52.628Z,6884
2016-06-15T06:47:52.601Z,6884
2016-06-15T06:48:52.603Z,6260
2016-06-15T06:49:52.607Z,5424
2016-06-15T06:50:52.563Z,4948
2016-06-15T06:51:52.426Z,4676
2016-06-15T06:52:52.585Z,4524
2016-06-15T06:53:52.416Z,4312
2016-06-15T06:54:52.356Z,4104
2016-06-15T06:55:54.485Z,4028
2016-06-15T06:56:52.487Z,4028
2016-06-15T06:57:52.507Z,4048
2016-06-15T06:58:52.462Z,3860
2016-06-15T06:59:52.529Z,3780
2016-06-15T07:00:53.969Z,3808
2016-06-15T07:01:52.425Z,3948
2016-06-15T07:02:52.444Z,4076
2016-06-15T07:03:52.400Z,4172
2016-06-15T07:04:52.403Z,4276
2016-06-15T07:05:53.922Z,4404
2016-06-15T07:06:52.409Z,4512
2016-06-15T07:07:52.381Z,4672
2016-06-15T07:08:52.368Z,4944
2016-06-15T07:09:52.340Z,5172
2016-06-15T07:10:52.312Z,5348
2016-06-15T07:11:52.331Z,5536
2016-06-15T07:12:52.333Z,5728
2016-06-15T07:13:52.150Z,5904
2016-06-15T07:14:52.292Z,6024
2016-06-15T07:15:52.140Z,6084
2016-06-15T07:16:52.268Z,6024
2016-06-15T07:17:52.256Z,6068
2016-06-15T07:18:52.243Z,6136
2016-06-15T07:19:52.215Z,6176
2016-06-15T07:20:52.202Z,6184
2016-06-15T07:21:51.878Z,6356
2016-06-15T07:22:52.177Z,6792
2016-06-15T07:23:52.164Z,7300
2016-06-15T07:24:52.167Z,7796
2016-06-15T07:25:53.312Z,8336
2016-06-15T07:26:52.158Z,8864
2016-06-15T07:27:52.130Z,9188
2016-06-15T07:28:52.118Z,9588
2016-06-15T07:29:52.105Z,9776
2016-06-15T07:30:53.592Z,10244
2016-06-15T07:31:52.080Z,10780
2016-06-15T07:32:52.052Z,11184
2016-06-15T07:33:52.039Z,11428
2016-06-15T07:34:52.089Z,11728
2016-06-15T07:35:53.311Z,11848
2016-06-15T07:36:52.735Z,11340
2016-06-15T07:37:51.973Z,11336
2016-06-15T07:38:52.054Z,11308
2016-06-15T07:39:51.823Z,11612
2016-06-15T07:40:52.373Z,12068
2016-06-15T07:41:51.955Z,12060
2016-06-15T07:42:51.941Z,11728
2016-06-15T07:43:51.773Z,11352
2016-06-15T07:44:51.932Z,11124
2016-06-15T07:45:51.779Z,11116
2016-06-15T07:46:51.970Z,11180
2016-06-15T07:47:51.879Z,11156
2016-06-15T07:48:52.007Z,11104
2016-06-15T07:49:51.854Z,11080
2016-06-15T07:50:52.169Z,11244
2016-06-15T07:51:51.875Z,11740
2016-06-15T07:52:51.864Z,12324
2016-06-15T07:53:51.819Z,12804
2016-06-15T07:54:51.822Z,12780
2016-06-15T07:55:52.373Z,12552
2016-06-15T07:56:51.813Z,12240
2016-06-15T07:57:51.769Z,12128
2016-06-15T07:58:51.834Z,12056
2016-06-15T07:59:51.760Z,11760
2016-06-15T08:00:52.513Z,11904
2016-06-15T08:01:51.750Z,11864
2016-06-15T08:02:51.565Z,11744
2016-06-15T08:03:51.381Z,11916
2016-06-15T08:04:51.743Z,12188
2016-06-15T08:05:51.934Z,12404
2016-06-15T08:06:52.782Z,12460
2016-06-15T08:07:51.659Z,12140
2016-06-15T08:08:51.694Z,11260
2016-06-15T08:09:51.666Z,10668
2016-06-15T08:10:52.027Z,11116
2016-06-15T08:11:51.640Z,12324
2016-06-15T08:12:51.642Z,13316
2016-06-15T08:13:51.615Z,14060
2016-06-15T08:14:51.524Z,12232
2016-06-15T08:15:51.621Z,11936
2016-06-15T08:16:51.594Z,12248
2016-06-15T08:17:51.580Z,12460
2016-06-15T08:18:51.568Z,11740
2016-06-15T08:19:51.399Z,11068
2016-06-15T08:20:54.980Z,10716
2016-06-15T08:21:53.109Z,9160
2016-06-15T08:22:52.501Z,8456
2016-06-15T08:23:51.927Z,7684
2016-06-15T08:24:51.493Z,7576
2016-06-15T08:25:51.496Z,7452
2016-06-15T08:26:51.483Z,7932
2016-06-15T08:27:51.455Z,7712
2016-06-15T08:28:51.302Z,7528
2016-06-15T08:29:51.445Z,7260
2016-06-15T08:30:55.933Z,7508
2016-06-15T08:31:51.498Z,8552
2016-06-15T08:32:51.408Z,9132
2016-06-15T08:33:51.442Z,9272
2016-06-15T08:34:51.414Z,8896
2016-06-15T08:35:53.371Z,10316
2016-06-15T08:36:51.624Z,10060
2016-06-15T08:37:51.377Z,6768
2016-06-15T08:38:51.363Z,5884
2016-06-15T08:39:51.398Z,5584
2016-06-15T08:40:52.151Z,5936
2016-06-15T08:41:51.357Z,6380
2016-06-15T08:42:51.313Z,6712
2016-06-15T08:43:51.301Z,7080
2016-06-15T08:44:51.304Z,6648
2016-06-15T08:45:51.277Z,7344
2016-06-15T08:46:51.279Z,8716
2016-06-15T08:47:51.111Z,11200
2016-06-15T08:48:51.238Z,10860
2016-06-15T08:49:51.303Z,9544
2016-06-15T08:50:53.292Z,5100
2016-06-15T08:51:51.684Z,3976
2016-06-15T08:52:51.204Z,3800
2016-06-15T08:53:51.206Z,3632
2016-06-15T08:54:51.194Z,3224
2016-06-15T08:55:51.432Z,3000
2016-06-15T08:56:51.169Z,2848
2016-06-15T08:57:51.328Z,2728
2016-06-15T08:58:51.019Z,2616
2016-06-15T08:59:57.772Z,2456
2016-06-15T09:00:51.118Z,2308
2016-06-15T09:01:51.091Z,2184
2016-06-15T09:02:57.391Z,2060
2016-06-15T09:03:51.128Z,1936
2016-06-15T09:04:51.100Z,1884
2016-06-15T09:05:51.088Z,1928
2016-06-15T09:06:51.137Z,2112
2016-06-15T09:07:51.062Z,2280
2016-06-15T09:08:51.051Z,2416
2016-06-15T09:09:51.006Z,2660
2016-06-15T09:10:51.040Z,2872
2016-06-15T09:11:51.028Z,2932
2016-06-15T09:12:50.889Z,3524
2016-06-15T09:13:50.977Z,4172
2016-06-15T09:14:50.967Z,4852
2016-06-15T09:16:10.409Z,6256
2016-06-15T09:16:50.943Z,8608
2016-06-15T09:17:50.931Z,10428
2016-06-15T09:18:50.902Z,8860
2016-06-15T09:19:50.905Z,8000
2016-06-15T09:20:50.753Z,8976
2016-06-15T09:21:51.067Z,10312
2016-06-15T09:22:50.962Z,10856
2016-06-15T09:23:50.933Z,11240
2016-06-15T09:24:50.874Z,13496
2016-06-15T09:25:50.860Z,14772
2016-06-15T09:26:50.833Z,43008
2016-06-15T09:27:50.821Z,30624
2016-06-15T09:28:50.792Z,56640
2016-06-15T09:29:50.790Z,60608
2016-06-15T09:30:50.777Z,61472
2016-06-15T09:31:50.765Z,63584
2016-06-15T09:32:50.768Z,47488
2016-06-15T09:33:50.755Z,49024
2016-06-15T09:34:50.790Z,57472
2016-06-15T09:35:50.762Z,62688
2016-06-15T09:36:50.873Z,63488
2016-06-15T09:37:50.751Z,9924
2016-06-15T09:38:50.723Z,8688
2016-06-15T09:39:50.727Z,7136
2016-06-15T09:40:50.699Z,6300
2016-06-15T09:41:50.702Z,4588
2016-06-15T09:42:50.533Z,3872
2016-06-15T09:43:50.676Z,4720
2016-06-15T09:44:50.665Z,6184
2016-06-15T09:45:50.667Z,8216
2016-06-15T09:46:50.717Z,63584
2016-06-15T09:47:50.641Z,64864
2016-06-15T09:48:50.567Z,33056
2016-06-15T09:49:50.647Z,11044
2016-06-15T09:50:50.308Z,59680
2016-06-15T09:51:53.826Z,56768
2016-06-15T09:52:50.470Z,56256
2016-06-15T09:53:50.597Z,56960
2016-06-15T09:54:50.585Z,6800
2016-06-15T09:55:50.604Z,3268
2016-06-15T09:56:50.576Z,2548
2016-06-15T09:57:50.579Z,2164
2016-06-15T09:58:50.567Z,1928
2016-06-15T09:59:50.413Z,1816
2016-06-15T10:00:50.525Z,1808
2016-06-15T10:01:50.559Z,1868
2016-06-15T10:02:50.531Z,1956
2016-06-15T10:03:50.538Z,2020
2016-06-15T10:04:50.581Z,2232
2016-06-15T10:05:50.608Z,2624
2016-06-15T10:06:50.683Z,3288
2016-06-15T10:07:51.538Z,4192
2016-06-15T10:08:50.678Z,5444
2016-06-15T10:09:50.696Z,7124
2016-06-15T10:10:50.696Z,8508
2016-06-15T10:11:50.699Z,8432
2016-06-15T10:12:50.701Z,7748
2016-06-15T10:13:50.714Z,7348
2016-06-15T10:14:50.691Z,6524
2016-06-15T10:15:50.683Z,6608
2016-06-15T10:16:50.692Z,7364
2016-06-15T10:17:56.513Z,8656
2016-06-15T10:18:50.692Z,9372
2016-06-15T10:19:50.759Z,9880
2016-06-15T10:20:50.650Z,10156
2016-06-15T10:21:50.717Z,10408
2016-06-15T10:22:50.863Z,10596
2016-06-15T10:23:50.649Z,11916
2016-06-15T10:24:50.622Z,10944
2016-06-15T10:25:50.610Z,9732
2016-06-15T10:26:50.599Z,9492
2016-06-15T10:27:50.460Z,9144
2016-06-15T10:28:50.589Z,10340
2016-06-15T10:29:50.593Z,11556
2016-06-15T10:30:50.565Z,8752
2016-06-15T10:31:50.568Z,6956
2016-06-15T10:32:50.541Z,6552
2016-06-15T10:33:50.590Z,5660
2016-06-15T10:34:50.548Z,5068
2016-06-15T10:36:11.632Z,4864
2016-06-15T10:37:00.104Z,4996
2016-06-15T10:38:14.997Z,5508
2016-06-15T10:38:59.719Z,5884
2016-06-15T10:40:37.238Z,7024
2016-06-15T10:41:51.585Z,9060
2016-06-15T10:42:20.432Z,10292
2016-06-15T10:43:18.888Z,12344
2016-06-15T10:44:14.329Z,11820
2016-06-15T10:45:14.269Z,14624
2016-06-15T10:46:54.961Z,11028
2016-06-15T10:47:36.056Z,9728
2016-06-15T10:49:07.325Z,9380
2016-06-15T10:49:58.032Z,7952
2016-06-15T10:51:02.160Z,9316
2016-06-15T10:52:23.947Z,5980
2016-06-15T10:54:23.344Z,3852
2016-06-15T10:55:53.378Z,2348
2016-06-15T10:56:13.506Z,2156
2016-06-15T10:57:13.447Z,1792
2016-06-15T10:58:13.418Z,1544
2016-06-15T10:59:13.422Z,1364
2016-06-15T11:00:13.472Z,1268
2016-06-15T11:01:13.413Z,1240
2016-06-15T11:02:13.385Z,1288
2016-06-15T11:03:13.228Z,1388
2016-06-15T11:04:13.406Z,1528
2016-06-15T11:05:13.394Z,1732
2016-06-15T11:06:13.378Z,2036
2016-06-15T11:07:13.618Z,2432
2016-06-15T11:08:13.699Z,2896
2016-06-15T11:09:13.371Z,3444
2016-06-15T11:10:13.172Z,4060
2016-06-15T11:11:13.299Z,4752
2016-06-15T11:12:13.303Z,5512
2016-06-15T11:13:13.306Z,6348
2016-06-15T11:14:13.294Z,6692
2016-06-15T11:15:13.264Z,7060
2016-06-15T11:16:13.268Z,6940
2016-06-15T11:17:13.256Z,6760
2016-06-15T11:18:13.227Z,6548
2016-06-15T11:19:13.231Z,6556
2016-06-15T11:20:13.233Z,7016
2016-06-15T11:21:13.191Z,7864
2016-06-15T11:22:13.209Z,7444
2016-06-15T11:23:13.039Z,11284
2016-06-15T11:24:13.199Z,6996
2016-06-15T11:25:13.187Z,9428
2016-06-15T11:26:13.158Z,6492
2016-06-15T11:27:13.146Z,9976
2016-06-15T11:28:13.149Z,12576
2016-06-15T11:29:13.120Z,11724
2016-06-15T11:30:13.124Z,10704
2016-06-15T11:31:12.971Z,11908
2016-06-15T11:32:13.099Z,10688
2016-06-15T11:33:13.117Z,13624
2016-06-15T11:34:13.073Z,13508
2016-06-15T11:35:13.076Z,12152
2016-06-15T11:36:13.080Z,13672
2016-06-15T11:37:13.068Z,11984
2016-06-15T11:38:13.335Z,9880
2016-06-15T11:39:13.073Z,10368
2016-06-15T11:40:13.029Z,13444
2016-06-15T11:41:13.047Z,13272
2016-06-15T11:42:13.020Z,13160
2016-06-15T11:43:13.023Z,10972
2016-06-15T11:44:13.026Z,10948
2016-06-15T11:45:13.014Z,11592
2016-06-15T11:46:13.001Z,12292
2016-06-15T11:47:13.005Z,13096
2016-06-15T11:48:12.819Z,12404
2016-06-15T11:49:13.010Z,9520
2016-06-15T11:50:12.951Z,6928
2016-06-15T11:51:12.969Z,8184
2016-06-15T11:52:13.676Z,7476
2016-06-15T11:53:13.054Z,8344
2016-06-15T11:54:12.932Z,10860
2016-06-15T11:55:12.920Z,11124
2016-06-15T11:56:12.922Z,11196
2016-06-15T11:57:12.910Z,10836
2016-06-15T11:58:12.913Z,10560
2016-06-15T11:59:12.900Z,10576
2016-06-15T12:00:12.920Z,10576
2016-06-15T12:01:12.891Z,10668
2016-06-15T12:02:12.863Z,10964
2016-06-15T12:03:12.866Z,11312
2016-06-15T12:04:12.854Z,6276
2016-06-15T12:05:12.857Z,5768
2016-06-15T12:06:12.703Z,9112
2016-06-15T12:07:12.707Z,11028
2016-06-15T12:08:13.037Z,8808
2016-06-15T12:09:12.681Z,10424
2016-06-15T12:10:12.825Z,7076
2016-06-15T12:11:12.656Z,8840
2016-06-15T12:12:12.831Z,6840
2016-06-15T12:13:12.850Z,7492
2016-06-15T12:14:12.821Z,6188
2016-06-15T12:15:12.638Z,7776
2016-06-15T12:16:12.781Z,5588
2016-06-15T12:17:12.768Z,4348
2016-06-15T12:18:12.755Z,3248
2016-06-15T12:19:12.759Z,2444
2016-06-15T12:20:12.762Z,1884
2016-06-15T12:21:12.750Z,1412
2016-06-15T12:22:12.768Z,1224
2016-06-15T12:23:14.005Z,1100
2016-06-15T12:24:12.774Z,1008
2016-06-15T12:25:12.715Z,972
2016-06-15T12:26:12.733Z,952
2016-06-15T12:27:12.705Z,912
2016-06-15T12:28:12.692Z,860
2016-06-15T12:29:12.695Z,768
2016-06-15T12:30:12.699Z,680
2016-06-15T12:31:12.687Z,624
2016-06-15T12:32:12.690Z,580
2016-06-15T12:33:12.645Z,568
2016-06-15T12:34:12.695Z,568
2016-06-15T12:35:12.636Z,612
2016-06-15T12:36:12.624Z,676
2016-06-15T12:37:12.923Z,776
2016-06-15T12:38:12.708Z,828
2016-06-15T12:39:12.445Z,848
2016-06-15T12:40:12.589Z,864
2016-06-15T12:41:12.562Z,840
2016-06-15T12:42:12.564Z,832
2016-06-15T12:43:12.551Z,868
2016-06-15T12:44:12.382Z,832
2016-06-15T12:45:12.542Z,832
2016-06-15T12:46:12.530Z,984
2016-06-15T12:47:12.517Z,1132
2016-06-15T12:48:12.661Z,1260
2016-06-15T12:49:12.491Z,1392
2016-06-15T12:50:12.495Z,1536
2016-06-15T12:51:12.482Z,1708
2016-06-15T12:52:12.860Z,1928
2016-06-15T12:53:12.348Z,2188
2016-06-15T12:54:12.444Z,2484
2016-06-15T12:55:12.276Z,2824
2016-06-15T12:56:12.450Z,3200
2016-06-15T12:57:12.406Z,3604
2016-06-15T12:58:12.425Z,4056
2016-06-15T12:59:12.398Z,4548
2016-06-15T13:00:12.385Z,5028
2016-06-15T13:01:12.388Z,5456
2016-06-15T13:02:12.376Z,6136
2016-06-15T13:03:12.347Z,7620
2016-06-15T13:04:12.350Z,7024
2016-06-15T13:05:12.338Z,6564
2016-06-15T13:06:12.325Z,6572
2016-06-15T13:07:12.703Z,6512
2016-06-15T13:08:12.847Z,6760
2016-06-15T13:09:12.318Z,7156
2016-06-15T13:10:12.307Z,8300
2016-06-15T13:11:12.278Z,11156
2016-06-15T13:12:12.140Z,12140
2016-06-15T13:13:12.253Z,12392
2016-06-15T13:14:12.271Z,12596
2016-06-15T13:15:12.337Z,12880
2016-06-15T13:16:12.262Z,13068
2016-06-15T13:17:12.468Z,13008
2016-06-15T13:18:12.659Z,12856
2016-06-15T13:19:12.240Z,12880
2016-06-15T13:20:12.227Z,12644
2016-06-15T13:21:12.466Z,12380
2016-06-15T13:22:12.218Z,12096
2016-06-15T13:23:12.658Z,11576
2016-06-15T13:24:12.178Z,11308
2016-06-15T13:25:12.446Z,11380
2016-06-15T13:26:12.215Z,11408
2016-06-15T13:27:12.249Z,11336
2016-06-15T13:28:12.159Z,11180
2016-06-15T13:29:12.317Z,11216
2016-06-15T13:30:12.165Z,11380
2016-06-15T13:31:12.324Z,11404
2016-06-15T13:32:12.108Z,11748
2016-06-15T13:33:12.111Z,11888
2016-06-15T13:34:12.099Z,11768
2016-06-15T13:35:12.134Z,11348
2016-06-15T13:36:12.120Z,11024
2016-06-15T13:37:12.124Z,9776
2016-06-15T13:38:13.330Z,7836